Kerman, California
Current Conditions -  °F | °C
As of 7:53 PM on Tuesday 21 Oct 2014 (Local Time) from KMAE Reporting Station
Clear Clear  
Wind Chill: 59°   Ceiling: Unl
Heat Index: 59°   Visibility: 10mi
Dew Point: 43°   Wind: 3mph
Humidity: 55%   Direction: 280°W
Pressure: 29.99"   Gusts: NA
Location:  36.73°N, 120.06°W
Report Text: KMAE 220253Z AUTO 28003KT 10SM CLR 15/06 A2999 RMK AO2 SLP153 T01500061 53003
Loading
Personal Weather Stations






























Interactive Weather Map
Tropical Storm Tracking
New forecast layout! Learn more

10-Day Weather Forecast

Advertisements
Track Severe Weather on mobile